createdAt,value
2018-09-09T00:01:21.462Z,14.10
2018-09-09T00:03:49.852Z,14.10
2018-09-09T00:06:18.876Z,14.10
2018-09-09T00:08:47.187Z,14.10
2018-09-09T00:11:15.540Z,14.10
2018-09-09T00:13:43.815Z,14.00
2018-09-09T00:16:12.109Z,14.00
2018-09-09T00:18:40.937Z,14.00
2018-09-09T00:21:09.485Z,14.10
2018-09-09T00:23:37.855Z,14.10
2018-09-09T00:26:06.387Z,14.10
2018-09-09T00:28:34.680Z,14.20
2018-09-09T00:31:03.059Z,14.20
2018-09-09T00:33:31.448Z,14.30
2018-09-09T00:35:59.956Z,14.30
2018-09-09T00:38:28.366Z,14.40
2018-09-09T00:40:56.680Z,14.40
2018-09-09T00:43:24.983Z,14.40
2018-09-09T00:45:53.366Z,14.50
2018-09-09T00:48:21.698Z,14.50
2018-09-09T00:50:55.496Z,14.50
2018-09-09T00:53:29.343Z,14.50
2018-09-09T00:55:57.775Z,14.60
2018-09-09T00:58:26.118Z,14.60
2018-09-09T01:01:02.690Z,14.60
2018-09-09T01:03:30.997Z,14.60
2018-09-09T01:05:59.344Z,14.60
2018-09-09T01:08:27.702Z,14.60
2018-09-09T01:11:02.608Z,14.60
2018-09-09T01:13:31.027Z,14.50
2018-09-09T01:15:59.327Z,14.50
2018-09-09T01:18:27.670Z,14.40
2018-09-09T01:20:56.050Z,14.40
2018-09-09T01:23:25.122Z,14.40
2018-09-09T01:25:53.506Z,14.40
2018-09-09T01:28:21.841Z,14.30
2018-09-09T01:30:50.175Z,14.30
2018-09-09T01:33:18.534Z,14.30
2018-09-09T01:35:46.884Z,14.20
2018-09-09T01:38:15.282Z,14.20
2018-09-09T01:40:43.610Z,14.20
2018-09-09T01:43:11.983Z,14.20
2018-09-09T01:45:40.300Z,14.20
2018-09-09T01:48:09.913Z,14.30
2018-09-09T01:50:39.341Z,14.30
2018-09-09T01:53:09.505Z,14.30
2018-09-09T01:55:37.856Z,14.30
2018-09-09T01:58:06.244Z,14.30
2018-09-09T02:00:34.680Z,14.20
2018-09-09T02:03:08.084Z,14.20
2018-09-09T02:05:36.559Z,14.20
2018-09-09T02:08:04.912Z,14.20
2018-09-09T02:10:33.255Z,14.10
2018-09-09T02:13:01.573Z,14.10
2018-09-09T02:15:29.909Z,14.00
2018-09-09T02:17:58.342Z,14.00
2018-09-09T02:20:26.777Z,14.00
2018-09-09T02:22:55.154Z,13.90
2018-09-09T02:25:23.552Z,13.90
2018-09-09T02:27:52.531Z,13.90
2018-09-09T02:30:20.969Z,13.80
2018-09-09T02:32:49.847Z,13.80
2018-09-09T02:35:18.247Z,13.80
2018-09-09T02:37:46.945Z,13.70
2018-09-09T02:40:16.060Z,13.70
2018-09-09T02:42:44.590Z,13.70
2018-09-09T02:45:13.202Z,13.60
2018-09-09T02:47:41.496Z,13.60
2018-09-09T02:50:09.837Z,13.60
2018-09-09T02:52:38.210Z,13.60
2018-09-09T02:55:06.596Z,13.60
2018-09-09T02:57:36.082Z,13.50
2018-09-09T03:00:04.545Z,13.50
2018-09-09T03:02:32.913Z,13.50
2018-09-09T03:05:01.241Z,13.50
2018-09-09T03:07:29.590Z,13.50
2018-09-09T03:09:57.923Z,13.50
2018-09-09T03:12:26.322Z,13.40
2018-09-09T03:14:54.662Z,13.40
2018-09-09T03:17:23.005Z,13.40
2018-09-09T03:19:51.346Z,13.40
2018-09-09T03:22:19.669Z,13.30
2018-09-09T03:24:47.948Z,13.30
2018-09-09T03:27:16.242Z,13.30
2018-09-09T03:29:44.554Z,13.30
2018-09-09T03:32:13.001Z,13.30
2018-09-09T03:34:41.340Z,13.30
2018-09-09T03:37:09.677Z,13.30
2018-09-09T03:39:38.144Z,13.20
2018-09-09T03:42:06.833Z,13.20
2018-09-09T03:44:35.190Z,13.10
2018-09-09T03:47:03.539Z,13.10
2018-09-09T03:49:32.053Z,13.10
2018-09-09T03:52:00.385Z,13.10
2018-09-09T03:54:28.735Z,13.00
2018-09-09T03:56:57.075Z,13.00
2018-09-09T03:59:25.421Z,13.00
2018-09-09T04:01:53.725Z,12.90
2018-09-09T04:04:22.040Z,12.90
2018-09-09T04:06:50.455Z,12.90
2018-09-09T04:09:18.794Z,12.90
2018-09-09T04:11:47.126Z,12.80
2018-09-09T04:14:15.477Z,12.80
2018-09-09T04:16:43.787Z,12.80
2018-09-09T04:19:12.120Z,12.80
2018-09-09T04:21:45.238Z,12.80
2018-09-09T04:24:13.577Z,12.80
2018-09-09T04:26:42.316Z,12.80
2018-09-09T04:29:10.675Z,12.80
2018-09-09T04:31:39.011Z,12.80
2018-09-09T04:34:07.384Z,12.80
2018-09-09T04:36:35.692Z,12.80
2018-09-09T04:39:05.353Z,12.70
2018-09-09T04:41:33.735Z,12.70
2018-09-09T04:44:02.044Z,12.70
2018-09-09T04:46:30.492Z,12.70
2018-09-09T04:48:58.735Z,12.70
2018-09-09T04:51:27.064Z,12.60
2018-09-09T04:53:55.478Z,12.60
2018-09-09T04:56:23.776Z,12.60
2018-09-09T04:58:52.213Z,12.50
2018-09-09T05:01:20.702Z,12.50
2018-09-09T05:03:49.115Z,12.50
2018-09-09T05:06:17.462Z,12.50
2018-09-09T05:08:45.827Z,12.50
2018-09-09T05:11:14.206Z,12.50
2018-09-09T05:13:42.523Z,12.50
2018-09-09T05:16:11.575Z,12.50
2018-09-09T05:18:40.097Z,12.60
2018-09-09T05:21:08.534Z,12.60
2018-09-09T05:23:36.913Z,12.60
2018-09-09T05:26:05.284Z,12.60
2018-09-09T05:28:33.635Z,12.70
2018-09-09T05:31:01.968Z,12.70
2018-09-09T05:33:30.346Z,12.70
2018-09-09T05:35:58.939Z,12.80
2018-09-09T05:38:27.350Z,12.80
2018-09-09T05:40:55.754Z,12.80
2018-09-09T05:43:24.148Z,12.90
2018-09-09T05:45:52.594Z,12.90
2018-09-09T05:48:20.925Z,13.00
2018-09-09T05:50:49.257Z,13.00
2018-09-09T05:53:17.731Z,13.10
2018-09-09T05:55:46.069Z,13.20
2018-09-09T05:58:14.413Z,13.30
2018-09-09T06:00:42.723Z,13.40
2018-09-09T06:03:11.080Z,13.50
2018-09-09T06:05:39.441Z,13.60
2018-09-09T06:08:07.884Z,13.70
2018-09-09T06:10:36.213Z,13.80
2018-09-09T06:13:04.626Z,13.80
2018-09-09T06:15:33.162Z,13.90
2018-09-09T06:18:01.517Z,14.00
2018-09-09T06:20:30.070Z,14.00
2018-09-09T06:22:58.466Z,14.10
2018-09-09T06:25:26.830Z,14.20
2018-09-09T06:27:55.384Z,14.30
2018-09-09T06:30:23.808Z,14.30
2018-09-09T06:32:52.328Z,14.50
2018-09-09T06:35:20.769Z,14.60
2018-09-09T06:37:49.214Z,14.70
2018-09-09T06:40:17.540Z,14.80
2018-09-09T06:42:45.903Z,14.90
2018-09-09T06:45:14.237Z,15.00
2018-09-09T06:47:42.906Z,15.00
2018-09-09T06:50:11.352Z,15.10
2018-09-09T06:52:39.708Z,15.20
2018-09-09T06:55:08.083Z,15.30
2018-09-09T06:57:36.736Z,15.40
2018-09-09T07:00:05.384Z,15.40
2018-09-09T07:02:33.743Z,15.50
2018-09-09T07:05:02.196Z,15.60
2018-09-09T07:07:30.849Z,15.70
2018-09-09T07:09:59.252Z,15.90
2018-09-09T07:12:27.650Z,16.00
2018-09-09T07:14:56.462Z,16.30
2018-09-09T07:17:25.133Z,16.50
2018-09-09T07:19:53.814Z,16.80
2018-09-09T07:22:22.148Z,16.90
2018-09-09T07:24:51.563Z,16.90
2018-09-09T07:27:20.094Z,17.00
2018-09-09T07:29:48.459Z,17.10
2018-09-09T07:32:16.764Z,17.20
2018-09-09T07:34:45.100Z,17.30
2018-09-09T07:37:14.051Z,17.30
2018-09-09T07:39:42.326Z,17.50
2018-09-09T07:42:10.842Z,17.60
2018-09-09T07:44:40.213Z,17.80
2018-09-09T07:47:08.612Z,17.90
2018-09-09T07:49:36.917Z,18.10
2018-09-09T07:52:05.504Z,18.30
2018-09-09T07:54:33.973Z,18.40
2018-09-09T07:57:04.415Z,18.60
2018-09-09T07:59:33.411Z,18.70
2018-09-09T08:02:02.302Z,18.70
2018-09-09T08:04:30.637Z,18.70
2018-09-09T08:06:59.156Z,18.90
2018-09-09T08:09:27.543Z,18.90
2018-09-09T08:11:56.029Z,19.00
2018-09-09T08:14:24.441Z,19.10
2018-09-09T08:16:52.976Z,19.20
2018-09-09T08:19:21.295Z,19.30
2018-09-09T08:21:49.667Z,19.50
2018-09-09T08:24:19.219Z,19.90
2018-09-09T08:26:47.704Z,20.50
2018-09-09T08:29:16.051Z,20.40
2018-09-09T08:31:44.743Z,20.20
2018-09-09T08:34:13.936Z,20.30
2018-09-09T08:36:42.478Z,20.50
2018-09-09T08:39:11.866Z,20.70
2018-09-09T08:41:40.595Z,20.90
2018-09-09T08:44:09.781Z,21.10
2018-09-09T08:46:38.138Z,21.00
2018-09-09T08:49:06.642Z,21.00
2018-09-09T08:51:35.692Z,21.00
2018-09-09T08:54:05.920Z,21.20
2018-09-09T08:56:35.226Z,21.40
2018-09-09T08:59:03.616Z,21.50
2018-09-09T09:01:33.040Z,21.40
2018-09-09T09:04:01.502Z,21.10
2018-09-09T09:06:30.727Z,21.10
2018-09-09T09:08:59.270Z,21.00
2018-09-09T09:11:27.595Z,21.00
2018-09-09T09:13:56.805Z,21.10
2018-09-09T09:16:25.137Z,21.00
2018-09-09T09:18:53.584Z,21.20
2018-09-09T09:21:22.697Z,21.40
2018-09-09T09:23:51.084Z,21.40
2018-09-09T09:26:19.555Z,21.40
2018-09-09T09:28:55.544Z,21.30
2018-09-09T09:31:23.907Z,21.30
2018-09-09T09:33:52.289Z,21.40
2018-09-09T09:36:21.152Z,21.20
2018-09-09T09:38:49.869Z,21.30
2018-09-09T09:41:18.202Z,21.20
2018-09-09T09:43:46.575Z,21.50
2018-09-09T09:46:15.291Z,21.70
2018-09-09T09:48:44.014Z,21.90
2018-09-09T09:51:12.402Z,22.20
2018-09-09T09:53:42.173Z,21.90
2018-09-09T09:56:11.702Z,21.90
2018-09-09T09:58:40.574Z,22.20
2018-09-09T10:01:08.879Z,22.30
2018-09-09T10:03:37.854Z,22.70
2018-09-09T10:06:07.521Z,23.10
2018-09-09T10:08:36.519Z,23.60
2018-09-09T10:11:04.920Z,23.30
2018-09-09T10:13:33.496Z,23.70
2018-09-09T10:16:02.216Z,24.00
2018-09-09T10:18:31.322Z,24.30
2018-09-09T10:21:00.263Z,24.70
2018-09-09T10:23:28.675Z,25.20
2018-09-09T10:25:57.176Z,25.30
2018-09-09T10:28:26.561Z,24.90
2018-09-09T10:30:55.563Z,24.50
2018-09-09T10:33:24.228Z,24.60
2018-09-09T10:35:53.215Z,24.80
2018-09-09T10:38:21.644Z,24.80
2018-09-09T10:40:51.552Z,24.70
2018-09-09T10:43:20.308Z,24.30
2018-09-09T10:45:49.809Z,24.20
2018-09-09T10:48:18.406Z,24.30
2018-09-09T10:50:46.897Z,24.00
2018-09-09T10:53:16.176Z,24.00
2018-09-09T10:55:45.176Z,24.20
2018-09-09T10:58:14.601Z,24.10
2018-09-09T11:00:43.516Z,24.00
2018-09-09T11:03:12.463Z,23.90
2018-09-09T11:05:42.052Z,24.10
2018-09-09T11:08:14.398Z,24.30
2018-09-09T11:10:43.817Z,24.50
2018-09-09T11:13:12.839Z,24.20
2018-09-09T11:15:42.280Z,24.10
2018-09-09T11:18:11.315Z,23.90
2018-09-09T11:20:40.374Z,23.80
2018-09-09T11:23:10.879Z,23.50
2018-09-09T11:25:40.018Z,23.20
2018-09-09T11:28:08.995Z,23.30
2018-09-09T11:30:37.408Z,23.40
2018-09-09T11:33:06.038Z,23.60
2018-09-09T11:35:34.329Z,23.90
2018-09-09T11:38:02.856Z,24.10
2018-09-09T11:40:31.265Z,24.20
2018-09-09T11:43:00.248Z,24.30
2018-09-09T11:45:28.751Z,24.00
2018-09-09T11:47:57.887Z,24.00
2018-09-09T11:50:26.270Z,24.30
2018-09-09T11:52:56.024Z,24.10
2018-09-09T11:55:25.098Z,24.30
2018-09-09T11:57:53.519Z,24.30
2018-09-09T12:00:22.945Z,24.60
2018-09-09T12:02:51.324Z,24.60
2018-09-09T12:05:19.685Z,24.70
2018-09-09T12:07:48.367Z,24.90
2018-09-09T12:10:17.838Z,24.80
2018-09-09T12:12:47.350Z,24.80
2018-09-09T12:15:20.671Z,25.00
2018-09-09T12:17:49.049Z,24.90
2018-09-09T12:20:17.351Z,25.30
2018-09-09T12:22:45.787Z,25.30
2018-09-09T12:25:14.219Z,25.50
2018-09-09T12:27:42.579Z,25.60
2018-09-09T12:30:11.054Z,25.60
2018-09-09T12:32:39.567Z,25.90
2018-09-09T12:35:07.936Z,26.00
2018-09-09T12:37:36.366Z,26.30
2018-09-09T12:40:04.963Z,26.20
2018-09-09T12:42:33.408Z,25.80
2018-09-09T12:45:07.166Z,25.80
2018-09-09T12:47:40.972Z,25.70
2018-09-09T12:50:09.405Z,25.30
2018-09-09T12:52:37.894Z,25.00
2018-09-09T12:55:06.368Z,24.80
2018-09-09T12:57:35.230Z,24.80
2018-09-09T13:00:04.294Z,24.60
2018-09-09T13:02:33.172Z,24.60
2018-09-09T13:05:02.067Z,24.80
2018-09-09T13:07:31.063Z,25.10
2018-09-09T13:09:59.500Z,25.70
2018-09-09T13:12:32.232Z,25.60
2018-09-09T13:15:00.693Z,25.60
2018-09-09T13:17:30.104Z,25.70
2018-09-09T13:19:58.558Z,26.40
2018-09-09T13:22:27.073Z,26.60
2018-09-09T13:24:55.465Z,27.30
2018-09-09T13:27:23.878Z,27.40
2018-09-09T13:29:52.303Z,27.70
2018-09-09T13:32:20.640Z,28.40
2018-09-09T13:34:48.981Z,28.80
2018-09-09T13:37:17.451Z,29.40
2018-09-09T13:39:45.845Z,29.70
2018-09-09T13:42:14.282Z,29.90
2018-09-09T13:44:42.648Z,29.90
2018-09-09T13:47:11.005Z,30.00
2018-09-09T13:49:39.420Z,29.60
2018-09-09T13:52:08.136Z,29.50
2018-09-09T13:54:36.551Z,29.60
2018-09-09T13:57:05.752Z,30.20
2018-09-09T13:59:34.412Z,30.80
2018-09-09T14:02:03.570Z,31.20
2018-09-09T14:04:31.874Z,31.10
2018-09-09T14:07:00.367Z,31.10
2018-09-09T14:09:28.935Z,31.10
2018-09-09T14:11:57.461Z,31.00
2018-09-09T14:14:25.881Z,30.80
2018-09-09T14:16:54.354Z,30.10
2018-09-09T14:19:22.810Z,29.20
2018-09-09T14:21:52.102Z,28.70
2018-09-09T14:24:20.502Z,28.70
2018-09-09T14:26:48.895Z,28.90
2018-09-09T14:29:17.369Z,29.30
2018-09-09T14:31:45.906Z,29.90
2018-09-09T14:34:14.427Z,29.80
2018-09-09T14:36:42.800Z,30.40
2018-09-09T14:39:11.222Z,30.20
2018-09-09T14:41:39.809Z,30.50
2018-09-09T14:44:08.404Z,30.50
2018-09-09T14:46:37.198Z,30.90
2018-09-09T14:49:05.564Z,31.40
2018-09-09T14:51:34.064Z,31.90
2018-09-09T14:54:02.453Z,32.10
2018-09-09T14:56:30.856Z,31.30
2018-09-09T14:58:59.349Z,31.10
2018-09-09T15:01:27.785Z,30.70
2018-09-09T15:03:56.263Z,30.90
2018-09-09T15:06:24.724Z,30.60
2018-09-09T15:08:53.057Z,30.50
2018-09-09T15:11:21.624Z,30.10
2018-09-09T15:13:50.053Z,30.20
2018-09-09T15:16:18.511Z,29.30
2018-09-09T15:18:46.845Z,29.60
2018-09-09T15:21:15.286Z,28.50
2018-09-09T15:23:43.727Z,27.70
2018-09-09T15:26:12.157Z,27.20
2018-09-09T15:28:40.682Z,26.80
2018-09-09T15:31:09.090Z,26.60
2018-09-09T15:33:37.634Z,26.10
2018-09-09T15:36:06.206Z,25.90
2018-09-09T15:38:34.611Z,25.90
2018-09-09T15:41:03.024Z,25.90
2018-09-09T15:43:31.480Z,25.70
2018-09-09T15:45:59.805Z,25.90
2018-09-09T15:48:28.309Z,26.00
2018-09-09T15:50:56.651Z,26.10
2018-09-09T15:53:25.110Z,26.00
2018-09-09T15:55:53.561Z,25.90
2018-09-09T15:58:21.967Z,25.70
2018-09-09T16:00:50.367Z,25.90
2018-09-09T16:03:18.832Z,26.20
2018-09-09T16:05:47.230Z,26.10
2018-09-09T16:08:15.641Z,25.90
2018-09-09T16:10:44.045Z,25.70
2018-09-09T16:13:13.000Z,25.40
2018-09-09T16:15:41.497Z,25.30
2018-09-09T16:18:09.905Z,25.00
2018-09-09T16:20:38.242Z,24.90
2018-09-09T16:23:06.799Z,24.60
2018-09-09T16:25:35.321Z,24.50
2018-09-09T16:28:03.767Z,24.40
2018-09-09T16:30:32.255Z,24.30
2018-09-09T16:33:00.639Z,24.30
2018-09-09T16:35:29.077Z,24.30
2018-09-09T16:37:57.528Z,24.20
2018-09-09T16:40:26.011Z,24.30
2018-09-09T16:42:54.480Z,24.20
2018-09-09T16:45:22.909Z,24.20
2018-09-09T16:47:51.425Z,24.20
2018-09-09T16:50:19.912Z,24.10
2018-09-09T16:52:48.377Z,24.10
2018-09-09T16:55:16.970Z,24.00
2018-09-09T16:57:45.406Z,24.10
2018-09-09T17:00:13.845Z,24.10
2018-09-09T17:02:42.286Z,24.20
2018-09-09T17:05:10.728Z,24.10
2018-09-09T17:07:40.388Z,24.10
2018-09-09T17:10:08.837Z,24.10
2018-09-09T17:12:37.375Z,24.00
2018-09-09T17:15:05.823Z,24.00
2018-09-09T17:17:34.340Z,23.80
2018-09-09T17:20:02.833Z,23.70
2018-09-09T17:22:31.228Z,23.50
2018-09-09T17:24:59.703Z,23.30
2018-09-09T17:27:30.256Z,23.20
2018-09-09T17:29:58.680Z,23.10
2018-09-09T17:32:28.149Z,22.90
2018-09-09T17:34:56.570Z,22.80
2018-09-09T17:37:24.963Z,22.70
2018-09-09T17:39:53.364Z,22.60
2018-09-09T17:42:21.774Z,22.40
2018-09-09T17:44:50.260Z,22.30
2018-09-09T17:47:18.686Z,22.10
2018-09-09T17:49:47.177Z,21.90
2018-09-09T17:52:15.618Z,21.70
2018-09-09T17:54:44.283Z,21.50
2018-09-09T17:57:13.823Z,21.30
2018-09-09T17:59:43.508Z,21.20
2018-09-09T18:02:11.983Z,21.10
2018-09-09T18:04:47.967Z,20.90
2018-09-09T18:07:16.469Z,20.80
2018-09-09T18:09:45.224Z,20.60
2018-09-09T18:12:13.606Z,20.50
2018-09-09T18:14:41.998Z,20.40
2018-09-09T18:17:15.295Z,20.20
2018-09-09T18:19:44.787Z,20.10
2018-09-09T18:22:13.403Z,20.00
2018-09-09T18:24:54.151Z,19.80
2018-09-09T18:27:22.500Z,19.70
2018-09-09T18:29:51.019Z,19.60
2018-09-09T18:32:19.453Z,19.50
2018-09-09T18:34:47.882Z,19.30
2018-09-09T18:37:17.156Z,19.20
2018-09-09T18:39:48.455Z,19.10
2018-09-09T18:42:17.006Z,19.00
2018-09-09T18:44:45.337Z,18.90
2018-09-09T18:47:15.360Z,18.80
2018-09-09T18:49:44.996Z,18.70
2018-09-09T18:52:13.560Z,18.60
2018-09-09T18:54:42.030Z,18.50
2018-09-09T18:57:11.080Z,18.40
2018-09-09T18:59:39.733Z,18.30
2018-09-09T19:02:08.429Z,18.30
2018-09-09T19:04:36.892Z,18.20
2018-09-09T19:07:05.668Z,18.10
2018-09-09T19:09:34.407Z,18.00
2018-09-09T19:12:02.785Z,17.90
2018-09-09T19:14:31.221Z,17.80
2018-09-09T19:16:59.610Z,17.80
2018-09-09T19:19:28.793Z,17.70
2018-09-09T19:22:00.285Z,17.60
2018-09-09T19:24:28.696Z,17.50
2018-09-09T19:26:57.135Z,17.40
2018-09-09T19:29:25.498Z,17.30
2018-09-09T19:31:54.941Z,17.20
2018-09-09T19:34:23.345Z,17.00
2018-09-09T19:36:51.766Z,16.90
2018-09-09T19:39:20.086Z,16.70
2018-09-09T19:41:48.543Z,16.50
2018-09-09T19:44:17.064Z,16.50
2018-09-09T19:46:45.807Z,16.40
2018-09-09T19:49:14.129Z,16.30
2018-09-09T19:51:43.217Z,16.30
2018-09-09T19:54:11.640Z,16.20
2018-09-09T19:56:40.120Z,16.20
2018-09-09T19:59:08.930Z,16.10
2018-09-09T20:01:37.545Z,16.10
2018-09-09T20:04:05.965Z,16.00
2018-09-09T20:06:34.380Z,16.00
2018-09-09T20:09:02.837Z,15.90
2018-09-09T20:11:31.310Z,15.90
2018-09-09T20:13:59.681Z,15.80
2018-09-09T20:16:28.140Z,15.70
2018-09-09T20:18:56.668Z,15.70
2018-09-09T20:21:25.033Z,15.60
2018-09-09T20:23:53.550Z,15.50
2018-09-09T20:26:21.909Z,15.50
2018-09-09T20:28:50.374Z,15.40
2018-09-09T20:31:18.906Z,15.40
2018-09-09T20:33:47.219Z,15.30
2018-09-09T20:36:15.605Z,15.20
2018-09-09T20:38:43.963Z,15.20
2018-09-09T20:41:13.396Z,15.10
2018-09-09T20:43:41.883Z,15.00
2018-09-09T20:46:10.584Z,15.00
2018-09-09T20:48:39.029Z,14.90
2018-09-09T20:51:07.488Z,14.80
2018-09-09T20:53:35.921Z,14.80
2018-09-09T20:56:04.379Z,14.70
2018-09-09T20:58:32.873Z,14.60
2018-09-09T21:01:01.395Z,14.60
2018-09-09T21:03:29.894Z,14.50
2018-09-09T21:05:58.405Z,14.40
2018-09-09T21:08:26.955Z,14.40
2018-09-09T21:10:55.390Z,14.40
2018-09-09T21:13:23.898Z,14.30
2018-09-09T21:15:52.297Z,14.30
2018-09-09T21:18:20.739Z,14.20
2018-09-09T21:20:49.241Z,14.10
2018-09-09T21:23:17.848Z,14.00
2018-09-09T21:25:46.296Z,13.90
2018-09-09T21:28:15.086Z,13.90
2018-09-09T21:30:43.636Z,13.80
2018-09-09T21:33:12.100Z,13.80
2018-09-09T21:35:40.428Z,13.70
2018-09-09T21:38:08.771Z,13.70
2018-09-09T21:40:37.147Z,13.60
2018-09-09T21:43:05.583Z,13.60
2018-09-09T21:45:33.915Z,13.50
2018-09-09T21:48:02.258Z,13.50
2018-09-09T21:50:30.659Z,13.40
2018-09-09T21:52:59.075Z,13.40
2018-09-09T21:55:27.449Z,13.30
2018-09-09T21:57:55.808Z,13.30
2018-09-09T22:00:24.250Z,13.20
2018-09-09T22:02:52.678Z,13.20
2018-09-09T22:05:21.905Z,13.20
2018-09-09T22:07:50.218Z,13.10
2018-09-09T22:10:18.595Z,13.10
2018-09-09T22:12:47.864Z,13.00
2018-09-09T22:15:16.248Z,13.00
2018-09-09T22:17:44.577Z,12.90
2018-09-09T22:20:12.995Z,12.90
2018-09-09T22:22:41.418Z,12.90
2018-09-09T22:25:09.794Z,12.90
2018-09-09T22:27:38.180Z,12.80
2018-09-09T22:30:07.060Z,12.80
2018-09-09T22:32:36.296Z,12.80
2018-09-09T22:35:04.648Z,12.70
2018-09-09T22:37:33.031Z,12.70
2018-09-09T22:40:01.356Z,12.70
2018-09-09T22:42:29.713Z,12.70
2018-09-09T22:44:58.085Z,12.70
2018-09-09T22:47:26.522Z,12.70
2018-09-09T22:49:54.878Z,12.70
2018-09-09T22:52:23.240Z,12.70
2018-09-09T22:54:51.614Z,12.80
2018-09-09T22:57:20.033Z,12.80
2018-09-09T22:59:48.374Z,12.80
2018-09-09T23:02:16.804Z,12.80
2018-09-09T23:04:45.194Z,12.80
2018-09-09T23:07:13.887Z,12.80
2018-09-09T23:09:42.275Z,12.90
2018-09-09T23:12:10.686Z,12.90
2018-09-09T23:14:39.052Z,12.90
2018-09-09T23:17:07.464Z,13.00
2018-09-09T23:19:35.848Z,13.00
2018-09-09T23:22:05.319Z,13.00
2018-09-09T23:24:33.707Z,13.00
2018-09-09T23:27:02.857Z,13.00
2018-09-09T23:29:31.286Z,13.00
2018-09-09T23:32:00.300Z,13.00
2018-09-09T23:34:28.766Z,13.00
2018-09-09T23:36:57.381Z,13.00
2018-09-09T23:39:25.833Z,13.00
2018-09-09T23:41:54.458Z,12.90
2018-09-09T23:44:23.180Z,13.00
2018-09-09T23:46:52.768Z,12.90
2018-09-09T23:49:21.134Z,12.90
2018-09-09T23:51:49.700Z,12.90
2018-09-09T23:54:19.248Z,12.90
2018-09-09T23:56:47.824Z,13.00
2018-09-09T23:59:16.163Z,13.00
